AAY1306 KSFB-KIAG
Flight info
| Callsign | AAY1306 |
|---|---|
| Flight time | 2h 9m |
| Altitude | 37000 |
| Route | WORMS GUANO BKENI VIYAP Q69 GURGE BLAAN Q69 RICCS EWC DKK BUF |
| Aircraft | B38M/M-SDE1FGHILORVWXY/HB1 |
Departure
| Time | 2026-05-08 00:44 |
|---|---|
| Airport | Orlando Sanford International Airport (KSFB) |
Arrival
| Time | 2026-05-08 02:53 |
|---|---|
| Airport | Niagara Falls International Airport (KIAG) |
| Time | Latitude | Longitude | Altitude | Speed | Heading |
|---|---|---|---|---|---|
| 2026-05-08 00:08 | 28.77623 | -81.24479 | 64 ft | 0 kts | 268° |
| 2026-05-08 00:32 | 28.77624 | -81.24465 | 58 ft | 4 kts | 259° |
| 2026-05-08 00:33 | 28.77634 | -81.24439 | 54 ft | 4 kts | 222° |
| 2026-05-08 00:33 | 28.77656 | -81.24424 | 54 ft | 4 kts | 225° |
| 2026-05-08 00:33 | 28.77662 | -81.24425 | 58 ft | 1 kts | 306° |
| 2026-05-08 00:33 | 28.77659 | -81.24421 | 63 ft | 0 kts | 306° |
| 2026-05-08 00:38 | 28.77705 | -81.24452 | 55 ft | 8 kts | 344° |
| 2026-05-08 00:38 | 28.77766 | -81.24509 | 56 ft | 14 kts | 315° |
| 2026-05-08 00:38 | 28.77870 | -81.24533 | 55 ft | 17 kts | 359° |
| 2026-05-08 00:38 | 28.77983 | -81.24533 | 59 ft | 17 kts | 359° |
| 2026-05-08 00:39 | 28.78065 | -81.24469 | 57 ft | 16 kts | 84° |
| 2026-05-08 00:39 | 28.78066 | -81.24339 | 62 ft | 16 kts | 90° |
| 2026-05-08 00:39 | 28.78067 | -81.24209 | 62 ft | 17 kts | 90° |
| 2026-05-08 00:39 | 28.78067 | -81.24074 | 66 ft | 18 kts | 90° |
| 2026-05-08 00:40 | 28.78066 | -81.23926 | 60 ft | 19 kts | 90° |
| 2026-05-08 00:40 | 28.78067 | -81.23765 | 67 ft | 21 kts | 89° |
| 2026-05-08 00:40 | 28.78068 | -81.23586 | 65 ft | 24 kts | 89° |
| 2026-05-08 00:40 | 28.78016 | -81.23398 | 61 ft | 26 kts | 100° |
| 2026-05-08 00:41 | 28.78014 | -81.23214 | 59 ft | 20 kts | 90° |
| 2026-05-08 00:41 | 28.78014 | -81.23044 | 59 ft | 22 kts | 89° |
| 2026-05-08 00:41 | 28.78015 | -81.22860 | 59 ft | 24 kts | 90° |
| 2026-05-08 00:41 | 28.78015 | -81.22663 | 60 ft | 25 kts | 89° |
| 2026-05-08 00:42 | 28.78016 | -81.22464 | 65 ft | 25 kts | 89° |
| 2026-05-08 00:42 | 28.78015 | -81.22267 | 66 ft | 19 kts | 91° |
| 2026-05-08 00:42 | 28.78061 | -81.22175 | 66 ft | 13 kts | 10° |
| 2026-05-08 00:42 | 28.78151 | -81.22174 | 61 ft | 12 kts | 349° |
| 2026-05-08 00:43 | 28.78177 | -81.22211 | 68 ft | 5 kts | 271° |
| 2026-05-08 00:43 | 28.78179 | -81.22307 | 65 ft | 32 kts | 270° |
| 2026-05-08 00:43 | 28.78178 | -81.22853 | 59 ft | 102 kts | 270° |
| 2026-05-08 00:43 | 28.78176 | -81.23852 | 70 ft | 151 kts | 270° |
| 2026-05-08 00:44 | 28.78177 | -81.25122 | 470 ft | 163 kts | 270° |
| 2026-05-08 00:44 | 28.78133 | -81.26424 | 1126 ft | 169 kts | 268° |
| 2026-05-08 00:44 | 28.78098 | -81.27788 | 1777 ft | 177 kts | 269° |
| 2026-05-08 00:44 | 28.78057 | -81.29289 | 2117 ft | 204 kts | 268° |
| 2026-05-08 00:45 | 28.78006 | -81.30993 | 2587 ft | 225 kts | 268° |
| 2026-05-08 00:45 | 28.78288 | -81.32814 | 3028 ft | 247 kts | 297° |
| 2026-05-08 00:45 | 28.79518 | -81.34252 | 3632 ft | 261 kts | 329° |
| 2026-05-08 00:45 | 28.81256 | -81.34852 | 4519 ft | 267 kts | 351° |
| 2026-05-08 00:46 | 28.83137 | -81.35120 | 5250 ft | 275 kts | 350° |
| 2026-05-08 00:46 | 28.85030 | -81.35426 | 6146 ft | 276 kts | 349° |
| 2026-05-08 00:46 | 28.86950 | -81.35733 | 6921 ft | 280 kts | 349° |
| 2026-05-08 00:46 | 28.88887 | -81.36044 | 7722 ft | 282 kts | 349° |
| 2026-05-08 00:47 | 28.90842 | -81.36357 | 8490 ft | 285 kts | 349° |
| 2026-05-08 00:47 | 28.92819 | -81.36673 | 9279 ft | 288 kts | 348° |
| 2026-05-08 00:47 | 28.94811 | -81.36991 | 10076 ft | 290 kts | 348° |
| 2026-05-08 00:47 | 28.96849 | -81.37316 | 10556 ft | 305 kts | 348° |
| 2026-05-08 00:48 | 28.99023 | -81.37663 | 10846 ft | 326 kts | 348° |
| 2026-05-08 00:48 | 29.01327 | -81.38003 | 11167 ft | 343 kts | 351° |
| 2026-05-08 00:48 | 29.03748 | -81.38242 | 11670 ft | 352 kts | 351° |
| 2026-05-08 00:48 | 29.06165 | -81.38484 | 12398 ft | 355 kts | 351° |
| 2026-05-08 00:49 | 29.08648 | -81.38736 | 13071 ft | 360 kts | 350° |
| 2026-05-08 00:49 | 29.11180 | -81.38770 | 13794 ft | 371 kts | 1° |
| 2026-05-08 00:49 | 29.12917 | -81.38562 | 14230 ft | 373 kts | 360° |
| 2026-05-08 00:49 | 29.16357 | -81.38243 | 15166 ft | 375 kts | 359° |
| 2026-05-08 00:50 | 29.18124 | -81.38093 | 15651 ft | 377 kts | 358° |
| 2026-05-08 00:50 | 29.20745 | -81.37883 | 16336 ft | 379 kts | 358° |
| 2026-05-08 00:50 | 29.23387 | -81.37679 | 17027 ft | 381 kts | 358° |
| 2026-05-08 00:50 | 29.26045 | -81.37478 | 17707 ft | 384 kts | 357° |
| 2026-05-08 00:51 | 29.28720 | -81.37276 | 18316 ft | 387 kts | 357° |
| 2026-05-08 00:51 | 29.31424 | -81.37070 | 18867 ft | 390 kts | 356° |
| 2026-05-08 00:51 | 29.34142 | -81.36865 | 19401 ft | 394 kts | 356° |
| 2026-05-08 00:51 | 29.36886 | -81.36657 | 19925 ft | 397 kts | 356° |
| 2026-05-08 00:52 | 29.39655 | -81.36447 | 20428 ft | 400 kts | 356° |
| 2026-05-08 00:52 | 29.42445 | -81.36236 | 20936 ft | 404 kts | 356° |
| 2026-05-08 00:52 | 29.45259 | -81.36023 | 21438 ft | 407 kts | 356° |
| 2026-05-08 00:52 | 29.48101 | -81.35808 | 21938 ft | 410 kts | 356° |
| 2026-05-08 00:53 | 29.50962 | -81.35590 | 22426 ft | 413 kts | 356° |
| 2026-05-08 00:53 | 29.53811 | -81.35374 | 22888 ft | 417 kts | 356° |
| 2026-05-08 00:53 | 29.56719 | -81.35155 | 23372 ft | 421 kts | 356° |
| 2026-05-08 00:53 | 29.59703 | -81.34927 | 23747 ft | 425 kts | 356° |
| 2026-05-08 00:54 | 29.62628 | -81.34705 | 24138 ft | 428 kts | 355° |
| 2026-05-08 00:54 | 29.65577 | -81.34780 | 24510 ft | 423 kts | 348° |
| 2026-05-08 00:54 | 29.68530 | -81.35000 | 24881 ft | 427 kts | 349° |
| 2026-05-08 00:54 | 29.71506 | -81.35183 | 25283 ft | 430 kts | 349° |
| 2026-05-08 00:55 | 29.74509 | -81.35355 | 25663 ft | 433 kts | 349° |
| 2026-05-08 00:55 | 29.77527 | -81.35523 | 26057 ft | 436 kts | 349° |
| 2026-05-08 00:55 | 29.80569 | -81.35689 | 26449 ft | 438 kts | 349° |
| 2026-05-08 00:55 | 29.83621 | -81.35854 | 26849 ft | 441 kts | 349° |
| 2026-05-08 00:56 | 29.86699 | -81.36020 | 27257 ft | 443 kts | 349° |
| 2026-05-08 00:56 | 29.89775 | -81.36185 | 27651 ft | 445 kts | 349° |
| 2026-05-08 00:56 | 29.92881 | -81.36352 | 28002 ft | 447 kts | 349° |
| 2026-05-08 00:56 | 29.96003 | -81.36520 | 28362 ft | 450 kts | 349° |
| 2026-05-08 00:57 | 29.99139 | -81.36689 | 28712 ft | 452 kts | 349° |
| 2026-05-08 00:57 | 30.02289 | -81.36858 | 29051 ft | 455 kts | 349° |
| 2026-05-08 00:57 | 30.05465 | -81.37029 | 29392 ft | 457 kts | 349° |
| 2026-05-08 00:57 | 30.08648 | -81.37201 | 29735 ft | 460 kts | 349° |
| 2026-05-08 00:58 | 30.11852 | -81.37373 | 30085 ft | 462 kts | 349° |
| 2026-05-08 00:58 | 30.15075 | -81.37547 | 30307 ft | 465 kts | 349° |
| 2026-05-08 00:58 | 30.18321 | -81.37722 | 30565 ft | 468 kts | 349° |
| 2026-05-08 00:58 | 30.21581 | -81.37899 | 30842 ft | 470 kts | 349° |
| 2026-05-08 00:59 | 30.24857 | -81.38076 | 31116 ft | 472 kts | 349° |
| 2026-05-08 00:59 | 30.28140 | -81.38254 | 31443 ft | 472 kts | 349° |
| 2026-05-08 00:59 | 30.31421 | -81.38431 | 31809 ft | 472 kts | 349° |
| 2026-05-08 00:59 | 30.34698 | -81.38608 | 32190 ft | 471 kts | 348° |
| 2026-05-08 01:00 | 30.37934 | -81.38784 | 32569 ft | 471 kts | 348° |
| 2026-05-08 01:00 | 30.41201 | -81.38961 | 32955 ft | 470 kts | 348° |
| 2026-05-08 01:00 | 30.44467 | -81.39138 | 33348 ft | 469 kts | 348° |
| 2026-05-08 01:00 | 30.47735 | -81.39316 | 33726 ft | 468 kts | 348° |
| 2026-05-08 01:01 | 30.50988 | -81.39492 | 34110 ft | 468 kts | 348° |
| 2026-05-08 01:01 | 30.54232 | -81.39668 | 34458 ft | 466 kts | 348° |
| 2026-05-08 01:01 | 30.57473 | -81.39845 | 34803 ft | 465 kts | 348° |
| 2026-05-08 01:01 | 30.60701 | -81.40020 | 35148 ft | 464 kts | 348° |
| 2026-05-08 01:02 | 30.63922 | -81.40196 | 35473 ft | 462 kts | 348° |
| 2026-05-08 01:02 | 30.67088 | -81.40368 | 35802 ft | 461 kts | 348° |
| 2026-05-08 01:02 | 30.70282 | -81.40543 | 36219 ft | 457 kts | 347° |
| 2026-05-08 01:02 | 30.73451 | -81.40716 | 36563 ft | 455 kts | 347° |
| 2026-05-08 01:03 | 30.76616 | -81.40889 | 36859 ft | 454 kts | 347° |
| 2026-05-08 01:03 | 30.79774 | -81.41061 | 36993 ft | 454 kts | 347° |
| 2026-05-08 01:03 | 30.82925 | -81.41233 | 36956 ft | 451 kts | 347° |
| 2026-05-08 01:04 | 30.89200 | -81.41577 | 36957 ft | 451 kts | 347° |
| 2026-05-08 01:04 | 30.95463 | -81.41920 | 36949 ft | 451 kts | 347° |
| 2026-05-08 01:05 | 31.01736 | -81.42265 | 36953 ft | 451 kts | 347° |
| 2026-05-08 01:05 | 31.07965 | -81.42607 | 36955 ft | 451 kts | 347° |
| 2026-05-08 01:06 | 31.14235 | -81.42952 | 36942 ft | 451 kts | 347° |
| 2026-05-08 01:06 | 31.20511 | -81.43297 | 36968 ft | 452 kts | 347° |
| 2026-05-08 01:07 | 31.26806 | -81.43537 | 36954 ft | 455 kts | 348° |
| 2026-05-08 01:07 | 31.33123 | -81.43617 | 36972 ft | 455 kts | 348° |
| 2026-05-08 01:08 | 31.39457 | -81.43707 | 36944 ft | 452 kts | 348° |
| 2026-05-08 01:08 | 31.45770 | -81.43777 | 36948 ft | 460 kts | 352° |
| 2026-05-08 01:08 | 31.48987 | -81.43110 | 36846 ft | 479 kts | 8° |
| 2026-05-08 01:09 | 31.52149 | -81.41868 | 37025 ft | 480 kts | 7° |
| 2026-05-08 01:09 | 31.55342 | -81.40610 | 36907 ft | 485 kts | 8° |
| 2026-05-08 01:09 | 31.58533 | -81.39320 | 36938 ft | 485 kts | 8° |
| 2026-05-08 01:10 | 31.64932 | -81.36701 | 36926 ft | 487 kts | 8° |
| 2026-05-08 01:10 | 31.71323 | -81.34070 | 36925 ft | 486 kts | 8° |
| 2026-05-08 01:11 | 31.77710 | -81.31439 | 36934 ft | 487 kts | 8° |
| 2026-05-08 01:11 | 31.84111 | -81.28798 | 36923 ft | 491 kts | 8° |
| 2026-05-08 01:12 | 31.90536 | -81.26140 | 36903 ft | 486 kts | 8° |
| 2026-05-08 01:12 | 31.96959 | -81.23801 | 36826 ft | 465 kts | 354° |
| 2026-05-08 01:12 | 32.00102 | -81.23666 | 36993 ft | 449 kts | 349° |
| 2026-05-08 01:13 | 32.03269 | -81.23472 | 36866 ft | 457 kts | 351° |
| 2026-05-08 01:13 | 32.06447 | -81.23272 | 37029 ft | 458 kts | 350° |
| 2026-05-08 01:13 | 32.09644 | -81.23093 | 36923 ft | 461 kts | 349° |
| 2026-05-08 01:14 | 32.16008 | -81.22769 | 36973 ft | 462 kts | 350° |
| 2026-05-08 01:14 | 32.22421 | -81.22449 | 36975 ft | 460 kts | 349° |
| 2026-05-08 01:15 | 32.28834 | -81.22128 | 36939 ft | 460 kts | 349° |
| 2026-05-08 01:15 | 32.35233 | -81.21810 | 36913 ft | 461 kts | 349° |
| 2026-05-08 01:16 | 32.41646 | -81.21490 | 36915 ft | 462 kts | 349° |
| 2026-05-08 01:16 | 32.48065 | -81.21134 | 36907 ft | 467 kts | 354° |
| 2026-05-08 01:17 | 32.54579 | -81.19721 | 36915 ft | 477 kts | 358° |
| 2026-05-08 01:17 | 32.61103 | -81.18232 | 36937 ft | 477 kts | 358° |
| 2026-05-08 01:18 | 32.67622 | -81.16731 | 36914 ft | 477 kts | 358° |
| 2026-05-08 01:18 | 32.74144 | -81.15226 | 36910 ft | 477 kts | 358° |
| 2026-05-08 01:19 | 32.80669 | -81.13719 | 36916 ft | 478 kts | 358° |
| 2026-05-08 01:19 | 32.87202 | -81.12209 | 36946 ft | 478 kts | 357° |
| 2026-05-08 01:20 | 32.93730 | -81.10695 | 36921 ft | 478 kts | 357° |
| 2026-05-08 01:20 | 33.00270 | -81.09177 | 36919 ft | 478 kts | 357° |
| 2026-05-08 01:21 | 33.06763 | -81.07668 | 36909 ft | 478 kts | 357° |
| 2026-05-08 01:21 | 33.13305 | -81.06146 | 36909 ft | 479 kts | 357° |
| 2026-05-08 01:22 | 33.19846 | -81.04621 | 36911 ft | 479 kts | 357° |
| 2026-05-08 01:22 | 33.26380 | -81.03096 | 36908 ft | 478 kts | 357° |
| 2026-05-08 01:23 | 33.32918 | -81.01567 | 36915 ft | 479 kts | 357° |
| 2026-05-08 01:23 | 33.39457 | -81.00036 | 36929 ft | 478 kts | 357° |
| 2026-05-08 01:24 | 33.45994 | -80.98503 | 36917 ft | 478 kts | 357° |
| 2026-05-08 01:24 | 33.52480 | -80.96979 | 36914 ft | 478 kts | 357° |
| 2026-05-08 01:25 | 33.59011 | -80.95443 | 36897 ft | 478 kts | 357° |
| 2026-05-08 01:25 | 33.65545 | -80.93904 | 36926 ft | 478 kts | 357° |
| 2026-05-08 01:26 | 33.72066 | -80.92365 | 36900 ft | 477 kts | 357° |
| 2026-05-08 01:26 | 33.78582 | -80.90825 | 36876 ft | 477 kts | 357° |
| 2026-05-08 01:27 | 33.85097 | -80.89325 | 36886 ft | 471 kts | 354° |
| 2026-05-08 01:27 | 33.91590 | -80.88181 | 36901 ft | 471 kts | 354° |
| 2026-05-08 01:28 | 33.98067 | -80.86999 | 36894 ft | 471 kts | 354° |
| 2026-05-08 01:28 | 34.04538 | -80.85812 | 36885 ft | 471 kts | 354° |
| 2026-05-08 01:29 | 34.11029 | -80.84620 | 36903 ft | 472 kts | 354° |
| 2026-05-08 01:29 | 34.17512 | -80.83437 | 36907 ft | 471 kts | 354° |
| 2026-05-08 01:30 | 34.23941 | -80.82275 | 36914 ft | 471 kts | 354° |
| 2026-05-08 01:30 | 34.30466 | -80.81093 | 36909 ft | 471 kts | 354° |
| 2026-05-08 01:31 | 34.36897 | -80.79926 | 36914 ft | 471 kts | 354° |
| 2026-05-08 01:31 | 34.43378 | -80.78748 | 36909 ft | 470 kts | 354° |
| 2026-05-08 01:32 | 34.49848 | -80.77570 | 36943 ft | 471 kts | 354° |
| 2026-05-08 01:32 | 34.56318 | -80.76391 | 36952 ft | 471 kts | 354° |
| 2026-05-08 01:33 | 34.62792 | -80.75209 | 36966 ft | 471 kts | 354° |
| 2026-05-08 01:33 | 34.69263 | -80.74026 | 36974 ft | 469 kts | 354° |
| 2026-05-08 01:34 | 34.75723 | -80.72843 | 36968 ft | 469 kts | 354° |
| 2026-05-08 01:34 | 34.82191 | -80.71656 | 36956 ft | 469 kts | 354° |
| 2026-05-08 01:35 | 34.87557 | -80.70670 | 36955 ft | 469 kts | 354° |
| 2026-05-08 01:35 | 34.95078 | -80.69286 | 36954 ft | 464 kts | 353° |
| 2026-05-08 01:36 | 35.00361 | -80.68312 | 36923 ft | 463 kts | 353° |
| 2026-05-08 01:36 | 35.06751 | -80.67134 | 36921 ft | 464 kts | 353° |
| 2026-05-08 01:37 | 35.13132 | -80.65954 | 36926 ft | 464 kts | 353° |
| 2026-05-08 01:37 | 35.19510 | -80.64773 | 36943 ft | 462 kts | 352° |
| 2026-05-08 01:38 | 35.25862 | -80.63595 | 36981 ft | 463 kts | 352° |
| 2026-05-08 01:38 | 35.32234 | -80.62412 | 36927 ft | 463 kts | 353° |
| 2026-05-08 01:39 | 35.38588 | -80.61229 | 36944 ft | 463 kts | 352° |
| 2026-05-08 01:39 | 35.44963 | -80.60042 | 36957 ft | 465 kts | 352° |
| 2026-05-08 01:40 | 35.51368 | -80.58846 | 36966 ft | 465 kts | 352° |
| 2026-05-08 01:40 | 35.57775 | -80.57648 | 36974 ft | 466 kts | 352° |
| 2026-05-08 01:41 | 35.64177 | -80.56450 | 36978 ft | 465 kts | 352° |
| 2026-05-08 01:41 | 35.70581 | -80.55249 | 36978 ft | 465 kts | 352° |
| 2026-05-08 01:42 | 35.76988 | -80.54045 | 36970 ft | 465 kts | 352° |
| 2026-05-08 01:42 | 35.83387 | -80.52841 | 36965 ft | 465 kts | 352° |
| 2026-05-08 01:43 | 35.89782 | -80.51637 | 36962 ft | 465 kts | 352° |
| 2026-05-08 01:43 | 35.96179 | -80.50429 | 36935 ft | 465 kts | 352° |
| 2026-05-08 01:44 | 36.02572 | -80.49220 | 36931 ft | 465 kts | 352° |
| 2026-05-08 01:44 | 36.08960 | -80.48010 | 36936 ft | 465 kts | 352° |
| 2026-05-08 01:45 | 36.15362 | -80.46796 | 36981 ft | 465 kts | 352° |
| 2026-05-08 01:45 | 36.21713 | -80.45589 | 36940 ft | 464 kts | 352° |
| 2026-05-08 01:46 | 36.28097 | -80.44375 | 36971 ft | 465 kts | 352° |
| 2026-05-08 01:46 | 36.34488 | -80.43158 | 36991 ft | 465 kts | 351° |
| 2026-05-08 01:47 | 36.40865 | -80.41931 | 37007 ft | 464 kts | 352° |
| 2026-05-08 01:47 | 36.47245 | -80.40634 | 37001 ft | 466 kts | 352° |
| 2026-05-08 01:48 | 36.56819 | -80.38687 | 36964 ft | 464 kts | 352° |
| 2026-05-08 01:48 | 36.63195 | -80.37391 | 37017 ft | 464 kts | 352° |
| 2026-05-08 01:49 | 36.69537 | -80.36099 | 36974 ft | 461 kts | 352° |
| 2026-05-08 01:49 | 36.75815 | -80.35006 | 36995 ft | 453 kts | 348° |
| 2026-05-08 01:50 | 36.82102 | -80.34143 | 36936 ft | 455 kts | 348° |
| 2026-05-08 01:50 | 36.85247 | -80.33696 | 37052 ft | 455 kts | 348° |
| 2026-05-08 01:50 | 36.88394 | -80.33246 | 37025 ft | 455 kts | 348° |
| 2026-05-08 01:51 | 36.94657 | -80.32348 | 36983 ft | 452 kts | 348° |
| 2026-05-08 01:51 | 37.00925 | -80.31447 | 36981 ft | 453 kts | 348° |
| 2026-05-08 01:52 | 37.07191 | -80.30546 | 36998 ft | 453 kts | 348° |
| 2026-05-08 01:52 | 37.13437 | -80.29646 | 36976 ft | 451 kts | 348° |
| 2026-05-08 01:53 | 37.19683 | -80.28745 | 37022 ft | 453 kts | 348° |
| 2026-05-08 01:53 | 37.25944 | -80.27840 | 37019 ft | 452 kts | 348° |
| 2026-05-08 01:54 | 37.32198 | -80.26935 | 37038 ft | 452 kts | 348° |
| 2026-05-08 01:54 | 37.38474 | -80.26024 | 36983 ft | 454 kts | 349° |
| 2026-05-08 01:55 | 37.44750 | -80.25112 | 36989 ft | 455 kts | 348° |
| 2026-05-08 01:55 | 37.51037 | -80.24198 | 36970 ft | 454 kts | 348° |
| 2026-05-08 01:56 | 37.57326 | -80.23281 | 37031 ft | 456 kts | 349° |
| 2026-05-08 01:56 | 37.63645 | -80.22358 | 36970 ft | 457 kts | 349° |
| 2026-05-08 01:57 | 37.69979 | -80.21415 | 36999 ft | 459 kts | 349° |
| 2026-05-08 01:57 | 37.76317 | -80.20472 | 36996 ft | 459 kts | 350° |
| 2026-05-08 01:58 | 37.82670 | -80.19524 | 36991 ft | 459 kts | 351° |
| 2026-05-08 01:58 | 37.88990 | -80.18580 | 37024 ft | 462 kts | 351° |
| 2026-05-08 01:59 | 37.95365 | -80.17627 | 37007 ft | 461 kts | 351° |
| 2026-05-08 01:59 | 38.01730 | -80.16672 | 37016 ft | 460 kts | 351° |
| 2026-05-08 02:00 | 38.08097 | -80.15716 | 36988 ft | 459 kts | 350° |
| 2026-05-08 02:00 | 38.14434 | -80.14762 | 36998 ft | 460 kts | 351° |
| 2026-05-08 02:01 | 38.20797 | -80.13803 | 36987 ft | 459 kts | 351° |
| 2026-05-08 02:01 | 38.27156 | -80.12844 | 37021 ft | 461 kts | 351° |
| 2026-05-08 02:02 | 38.33538 | -80.11878 | 37011 ft | 462 kts | 351° |
| 2026-05-08 02:02 | 38.36718 | -80.11493 | 37007 ft | 451 kts | 346° |
| 2026-05-08 02:02 | 38.39811 | -80.11386 | 37017 ft | 452 kts | 347° |
| 2026-05-08 02:03 | 38.46097 | -80.11050 | 37030 ft | 453 kts | 347° |
| 2026-05-08 02:03 | 38.52410 | -80.10687 | 36992 ft | 455 kts | 347° |
| 2026-05-08 02:04 | 38.58754 | -80.10319 | 37011 ft | 457 kts | 348° |
| 2026-05-08 02:04 | 38.65100 | -80.09950 | 37029 ft | 456 kts | 348° |
| 2026-05-08 02:05 | 38.71450 | -80.09580 | 37045 ft | 456 kts | 348° |
| 2026-05-08 02:05 | 38.77794 | -80.09210 | 37010 ft | 458 kts | 348° |
| 2026-05-08 02:06 | 38.84173 | -80.08837 | 37017 ft | 458 kts | 348° |
| 2026-05-08 02:06 | 38.90551 | -80.08464 | 37003 ft | 458 kts | 347° |
| 2026-05-08 02:07 | 38.93625 | -80.08576 | 37079 ft | 442 kts | 340° |
| 2026-05-08 02:07 | 38.96723 | -80.08850 | 36986 ft | 448 kts | 342° |
| 2026-05-08 02:07 | 39.02946 | -80.09275 | 36995 ft | 450 kts | 342° |
| 2026-05-08 02:08 | 39.09173 | -80.09688 | 36997 ft | 448 kts | 342° |
| 2026-05-08 02:08 | 39.15425 | -80.10094 | 36998 ft | 449 kts | 342° |
| 2026-05-08 02:09 | 39.21687 | -80.10499 | 36994 ft | 449 kts | 343° |
| 2026-05-08 02:09 | 39.27938 | -80.10904 | 37008 ft | 450 kts | 343° |
| 2026-05-08 02:10 | 39.34192 | -80.11310 | 37008 ft | 450 kts | 343° |
| 2026-05-08 02:10 | 39.40403 | -80.11713 | 37034 ft | 450 kts | 343° |
| 2026-05-08 02:11 | 39.46646 | -80.12119 | 36988 ft | 448 kts | 343° |
| 2026-05-08 02:11 | 39.52884 | -80.12526 | 37002 ft | 449 kts | 343° |
| 2026-05-08 02:12 | 39.59144 | -80.12935 | 37008 ft | 449 kts | 343° |
| 2026-05-08 02:12 | 39.65398 | -80.13345 | 37022 ft | 450 kts | 344° |
| 2026-05-08 02:13 | 39.71656 | -80.13756 | 37008 ft | 450 kts | 344° |
| 2026-05-08 02:13 | 39.77916 | -80.14167 | 36995 ft | 450 kts | 344° |
| 2026-05-08 02:14 | 39.84149 | -80.14577 | 37072 ft | 450 kts | 344° |
| 2026-05-08 02:14 | 39.90418 | -80.14990 | 36993 ft | 451 kts | 344° |
| 2026-05-08 02:15 | 39.96698 | -80.15405 | 36993 ft | 451 kts | 344° |
| 2026-05-08 02:15 | 40.02969 | -80.15820 | 36992 ft | 451 kts | 344° |
| 2026-05-08 02:16 | 40.09245 | -80.16236 | 37043 ft | 452 kts | 345° |
| 2026-05-08 02:16 | 40.15516 | -80.16653 | 37050 ft | 451 kts | 345° |
| 2026-05-08 02:17 | 40.21767 | -80.17069 | 37017 ft | 448 kts | 345° |
| 2026-05-08 02:17 | 40.27986 | -80.17483 | 37023 ft | 448 kts | 345° |
| 2026-05-08 02:18 | 40.34212 | -80.17899 | 36988 ft | 448 kts | 345° |
| 2026-05-08 02:18 | 40.40440 | -80.18316 | 36997 ft | 448 kts | 345° |
| 2026-05-08 02:19 | 40.46667 | -80.18733 | 36985 ft | 448 kts | 345° |
| 2026-05-08 02:19 | 40.52876 | -80.19151 | 37004 ft | 448 kts | 345° |
| 2026-05-08 02:20 | 40.59102 | -80.19569 | 36993 ft | 448 kts | 345° |
| 2026-05-08 02:20 | 40.65288 | -80.19986 | 36996 ft | 448 kts | 344° |
| 2026-05-08 02:21 | 40.71523 | -80.20407 | 37046 ft | 448 kts | 345° |
| 2026-05-08 02:21 | 40.77757 | -80.20829 | 37010 ft | 449 kts | 345° |
| 2026-05-08 02:22 | 40.83077 | -80.20474 | 36984 ft | 476 kts | 3° |
| 2026-05-08 02:22 | 40.86213 | -80.19009 | 37034 ft | 491 kts | 11° |
| 2026-05-08 02:22 | 40.89406 | -80.17317 | 37008 ft | 494 kts | 10° |
| 2026-05-08 02:23 | 40.95770 | -80.13871 | 37042 ft | 496 kts | 11° |
| 2026-05-08 02:23 | 41.02119 | -80.10378 | 37001 ft | 494 kts | 11° |
| 2026-05-08 02:24 | 41.08476 | -80.06872 | 37009 ft | 495 kts | 11° |
| 2026-05-08 02:24 | 41.14834 | -80.03359 | 37054 ft | 495 kts | 12° |
| 2026-05-08 02:25 | 41.21170 | -79.99850 | 36991 ft | 492 kts | 12° |
| 2026-05-08 02:25 | 41.27486 | -79.96344 | 36678 ft | 487 kts | 12° |
| 2026-05-08 02:26 | 41.30620 | -79.94604 | 35818 ft | 491 kts | 11° |
| 2026-05-08 02:26 | 41.33796 | -79.92838 | 34903 ft | 497 kts | 11° |
| 2026-05-08 02:26 | 41.36988 | -79.91058 | 34240 ft | 496 kts | 11° |
| 2026-05-08 02:26 | 41.40157 | -79.89292 | 33522 ft | 493 kts | 11° |
| 2026-05-08 02:27 | 41.43296 | -79.87538 | 32485 ft | 488 kts | 11° |
| 2026-05-08 02:27 | 41.46438 | -79.85785 | 31542 ft | 492 kts | 10° |
| 2026-05-08 02:27 | 41.49599 | -79.84018 | 30757 ft | 493 kts | 10° |
| 2026-05-08 02:27 | 41.52735 | -79.82263 | 29948 ft | 497 kts | 10° |
| 2026-05-08 02:28 | 41.55932 | -79.80468 | 28902 ft | 500 kts | 12° |
| 2026-05-08 02:28 | 41.59137 | -79.78670 | 27989 ft | 498 kts | 13° |
| 2026-05-08 02:28 | 41.62312 | -79.76883 | 27355 ft | 492 kts | 13° |
| 2026-05-08 02:28 | 41.65451 | -79.75117 | 26654 ft | 487 kts | 13° |
| 2026-05-08 02:29 | 41.68560 | -79.73367 | 25974 ft | 482 kts | 13° |
| 2026-05-08 02:29 | 41.71633 | -79.71635 | 25282 ft | 477 kts | 14° |
| 2026-05-08 02:29 | 41.74686 | -79.69913 | 24640 ft | 473 kts | 14° |
| 2026-05-08 02:29 | 41.77696 | -79.68213 | 23936 ft | 469 kts | 15° |
| 2026-05-08 02:30 | 41.80663 | -79.66535 | 23205 ft | 453 kts | 15° |
| 2026-05-08 02:30 | 41.83519 | -79.64920 | 22541 ft | 443 kts | 15° |
| 2026-05-08 02:30 | 41.86347 | -79.63319 | 21875 ft | 438 kts | 15° |
| 2026-05-08 02:30 | 41.89136 | -79.61738 | 21248 ft | 433 kts | 15° |
| 2026-05-08 02:31 | 41.91902 | -79.60168 | 20630 ft | 428 kts | 16° |
| 2026-05-08 02:31 | 41.94634 | -79.58617 | 20048 ft | 424 kts | 16° |
| 2026-05-08 02:31 | 41.97346 | -79.57074 | 19419 ft | 421 kts | 17° |
| 2026-05-08 02:31 | 42.00038 | -79.55543 | 18797 ft | 418 kts | 17° |
| 2026-05-08 02:32 | 42.02706 | -79.54023 | 18194 ft | 414 kts | 17° |
| 2026-05-08 02:32 | 42.05348 | -79.52518 | 17532 ft | 411 kts | 17° |
| 2026-05-08 02:32 | 42.07964 | -79.51025 | 16938 ft | 406 kts | 17° |
| 2026-05-08 02:32 | 42.10547 | -79.49550 | 16384 ft | 401 kts | 17° |
| 2026-05-08 02:33 | 42.13090 | -79.48097 | 15838 ft | 397 kts | 17° |
| 2026-05-08 02:33 | 42.15621 | -79.46648 | 15296 ft | 393 kts | 17° |
| 2026-05-08 02:33 | 42.18100 | -79.45229 | 14747 ft | 391 kts | 17° |
| 2026-05-08 02:33 | 42.20623 | -79.43783 | 14215 ft | 388 kts | 17° |
| 2026-05-08 02:34 | 42.23064 | -79.42383 | 13679 ft | 386 kts | 18° |
| 2026-05-08 02:34 | 42.25529 | -79.40967 | 13086 ft | 383 kts | 18° |
| 2026-05-08 02:34 | 42.27968 | -79.39566 | 12572 ft | 379 kts | 18° |
| 2026-05-08 02:34 | 42.30363 | -79.38189 | 12339 ft | 368 kts | 18° |
| 2026-05-08 02:35 | 42.32671 | -79.36860 | 12183 ft | 355 kts | 18° |
| 2026-05-08 02:35 | 42.34900 | -79.35578 | 12016 ft | 343 kts | 17° |
| 2026-05-08 02:35 | 42.37056 | -79.34334 | 11807 ft | 329 kts | 17° |
| 2026-05-08 02:35 | 42.39099 | -79.33155 | 11679 ft | 308 kts | 17° |
| 2026-05-08 02:36 | 42.41013 | -79.32050 | 11568 ft | 293 kts | 17° |
| 2026-05-08 02:36 | 42.42861 | -79.30984 | 11412 ft | 284 kts | 16° |
| 2026-05-08 02:36 | 42.44650 | -79.29952 | 11275 ft | 277 kts | 16° |
| 2026-05-08 02:36 | 42.46445 | -79.28916 | 11149 ft | 285 kts | 17° |
| 2026-05-08 02:37 | 42.48280 | -79.27838 | 11028 ft | 291 kts | 20° |
| 2026-05-08 02:37 | 42.49919 | -79.26147 | 11026 ft | 303 kts | 42° |
| 2026-05-08 02:37 | 42.51374 | -79.24055 | 11034 ft | 305 kts | 40° |
| 2026-05-08 02:37 | 42.52854 | -79.21985 | 11034 ft | 305 kts | 41° |
| 2026-05-08 02:38 | 42.54308 | -79.19933 | 10963 ft | 298 kts | 41° |
| 2026-05-08 02:38 | 42.55729 | -79.17921 | 10754 ft | 292 kts | 41° |
| 2026-05-08 02:38 | 42.57105 | -79.15967 | 10428 ft | 290 kts | 41° |
| 2026-05-08 02:38 | 42.58498 | -79.13985 | 10070 ft | 289 kts | 41° |
| 2026-05-08 02:39 | 42.59886 | -79.12013 | 9755 ft | 288 kts | 41° |
| 2026-05-08 02:39 | 42.61245 | -79.10079 | 9417 ft | 286 kts | 41° |
| 2026-05-08 02:39 | 42.62618 | -79.08124 | 9088 ft | 285 kts | 41° |
| 2026-05-08 02:39 | 42.63976 | -79.06188 | 9010 ft | 284 kts | 41° |
| 2026-05-08 02:40 | 42.65341 | -79.04239 | 9013 ft | 286 kts | 41° |
| 2026-05-08 02:40 | 42.66714 | -79.02279 | 9014 ft | 287 kts | 41° |
| 2026-05-08 02:40 | 42.68076 | -79.00295 | 9009 ft | 288 kts | 45° |
| 2026-05-08 02:40 | 42.69300 | -78.98131 | 9010 ft | 290 kts | 49° |
| 2026-05-08 02:41 | 42.70515 | -78.95944 | 9014 ft | 288 kts | 47° |
| 2026-05-08 02:41 | 42.71780 | -78.93840 | 9002 ft | 288 kts | 46° |
| 2026-05-08 02:41 | 42.73065 | -78.91752 | 9006 ft | 288 kts | 46° |
| 2026-05-08 02:41 | 42.74353 | -78.89663 | 9004 ft | 288 kts | 45° |
| 2026-05-08 02:42 | 42.75643 | -78.87574 | 8997 ft | 288 kts | 45° |
| 2026-05-08 02:42 | 42.76915 | -78.85510 | 8997 ft | 288 kts | 45° |
| 2026-05-08 02:42 | 42.78222 | -78.83390 | 9001 ft | 289 kts | 46° |
| 2026-05-08 02:42 | 42.79489 | -78.81336 | 8884 ft | 285 kts | 45° |
| 2026-05-08 02:43 | 42.80770 | -78.79254 | 8516 ft | 286 kts | 45° |
| 2026-05-08 02:43 | 42.82044 | -78.77193 | 8210 ft | 284 kts | 45° |
| 2026-05-08 02:43 | 42.83316 | -78.75136 | 7901 ft | 283 kts | 45° |
| 2026-05-08 02:43 | 42.84582 | -78.73092 | 7572 ft | 282 kts | 45° |
| 2026-05-08 02:44 | 42.85841 | -78.71059 | 7255 ft | 280 kts | 45° |
| 2026-05-08 02:44 | 42.87094 | -78.69033 | 6962 ft | 279 kts | 45° |
| 2026-05-08 02:44 | 42.88349 | -78.67029 | 6684 ft | 276 kts | 45° |
| 2026-05-08 02:44 | 42.89603 | -78.65064 | 6352 ft | 274 kts | 42° |
| 2026-05-08 02:45 | 42.91170 | -78.63728 | 5831 ft | 262 kts | 8° |
| 2026-05-08 02:45 | 42.92915 | -78.63713 | 5409 ft | 245 kts | 344° |
| 2026-05-08 02:45 | 42.94527 | -78.64290 | 5044 ft | 236 kts | 343° |
| 2026-05-08 02:45 | 42.96122 | -78.64709 | 4687 ft | 231 kts | 345° |
| 2026-05-08 02:46 | 42.97678 | -78.65116 | 4314 ft | 225 kts | 345° |
| 2026-05-08 02:46 | 42.99192 | -78.65519 | 3945 ft | 219 kts | 345° |
| 2026-05-08 02:46 | 43.00654 | -78.65908 | 3719 ft | 207 kts | 344° |
| 2026-05-08 02:46 | 43.02024 | -78.66280 | 3545 ft | 194 kts | 344° |
| 2026-05-08 02:47 | 43.03321 | -78.66628 | 3287 ft | 186 kts | 344° |
| 2026-05-08 02:47 | 43.04592 | -78.66976 | 3034 ft | 186 kts | 344° |
| 2026-05-08 02:47 | 43.05846 | -78.67315 | 2884 ft | 183 kts | 344° |
| 2026-05-08 02:47 | 43.07089 | -78.67646 | 2707 ft | 182 kts | 345° |
| 2026-05-08 02:48 | 43.08318 | -78.67974 | 2491 ft | 183 kts | 345° |
| 2026-05-08 02:48 | 43.09570 | -78.68375 | 2211 ft | 179 kts | 332° |
| 2026-05-08 02:48 | 43.10418 | -78.69480 | 2166 ft | 171 kts | 294° |
| 2026-05-08 02:48 | 43.10703 | -78.71046 | 2233 ft | 171 kts | 273° |
| 2026-05-08 02:49 | 43.10812 | -78.72699 | 2220 ft | 173 kts | 275° |
| 2026-05-08 02:49 | 43.10890 | -78.74296 | 2176 ft | 167 kts | 272° |
| 2026-05-08 02:49 | 43.10919 | -78.75874 | 2188 ft | 163 kts | 271° |
| 2026-05-08 02:49 | 43.10928 | -78.77420 | 2186 ft | 161 kts | 270° |
| 2026-05-08 02:50 | 43.10927 | -78.78960 | 2215 ft | 162 kts | 269° |
| 2026-05-08 02:50 | 43.10929 | -78.80492 | 2148 ft | 158 kts | 270° |
| 2026-05-08 02:50 | 43.10929 | -78.81874 | 2025 ft | 136 kts | 270° |
| 2026-05-08 02:50 | 43.10931 | -78.83157 | 1896 ft | 135 kts | 270° |
| 2026-05-08 02:51 | 43.10935 | -78.84433 | 1753 ft | 134 kts | 270° |
| 2026-05-08 02:51 | 43.10935 | -78.85698 | 1579 ft | 132 kts | 269° |
| 2026-05-08 02:51 | 43.10938 | -78.86969 | 1409 ft | 135 kts | 270° |
| 2026-05-08 02:51 | 43.10940 | -78.88264 | 1267 ft | 137 kts | 270° |
| 2026-05-08 02:52 | 43.10940 | -78.89570 | 1072 ft | 138 kts | 269° |
| 2026-05-08 02:52 | 43.10946 | -78.90894 | 927 ft | 141 kts | 270° |
| 2026-05-08 02:52 | 43.10945 | -78.92247 | 769 ft | 143 kts | 270° |
| 2026-05-08 02:52 | 43.10946 | -78.93622 | 619 ft | 142 kts | 269° |
| 2026-05-08 02:53 | 43.10949 | -78.94769 | 604 ft | 90 kts | 270° |
| 2026-05-08 02:53 | 43.10950 | -78.95334 | 604 ft | 27 kts | 271° |
| 2026-05-08 02:53 | 43.10943 | -78.95528 | 598 ft | 15 kts | 240° |
| 2026-05-08 02:53 | 43.10853 | -78.95554 | 599 ft | 14 kts | 179° |
| 2026-05-08 02:54 | 43.10749 | -78.95555 | 600 ft | 16 kts | 180° |
| 2026-05-08 02:54 | 43.10619 | -78.95555 | 596 ft | 21 kts | 180° |
| 2026-05-08 02:54 | 43.10467 | -78.95556 | 596 ft | 20 kts | 180° |
| 2026-05-08 02:54 | 43.10365 | -78.95555 | 592 ft | 17 kts | 179° |
| 2026-05-08 02:55 | 43.10281 | -78.95539 | 594 ft | 11 kts | 143° |
| 2026-05-08 02:55 | 43.10259 | -78.95288 | 595 ft | 16 kts | 90° |
| 2026-05-08 02:55 | 43.10210 | -78.95144 | 594 ft | 18 kts | 122° |
| 2026-05-08 02:56 | 43.10191 | -78.94967 | 595 ft | 20 kts | 89° |
| 2026-05-08 02:56 | 43.10176 | -78.94803 | 597 ft | 15 kts | 118° |
| 2026-05-08 02:56 | 43.10117 | -78.94682 | 599 ft | 15 kts | 121° |
| 2026-05-08 02:56 | 43.10094 | -78.94554 | 602 ft | 14 kts | 93° |
| 2026-05-08 02:57 | 43.10110 | -78.94431 | 601 ft | 13 kts | 40° |
| 2026-05-08 02:57 | 43.10175 | -78.94345 | 602 ft | 12 kts | 50° |
| 2026-05-08 02:57 | 43.10201 | -78.94293 | 604 ft | 3 kts | 89° |
| 2026-05-08 02:57 | 43.10180 | -78.94263 | 602 ft | 7 kts | 134° |
| 2026-05-08 02:58 | 43.10160 | -78.94199 | 601 ft | 4 kts | 109° |
| 2026-05-08 02:58 | 43.10153 | -78.94173 | 600 ft | 3 kts | 110° |
| 2026-05-08 02:58 | 43.10151 | -78.94167 | 600 ft | 0 kts | 110° |